Racecast

Liam Anderson

Temperance Bedford (MI) · 8 · SECMI D1MONROE · Compare head to head

Athlete rating 110.3 2025 XC season
Best race 110.5 XC
Races 34
Seasons 3 2023 — 2025

RankedNation #31412·MI #4072·Team #54 ?

Rating scale ?

Cross Country

2025 XC 104.6

Temperance Bedford (MI) · Grade 8

Date Meet Event Result Place Rating Difficulty PR/SR Flags
2025-10-31 Willow Metropark OFFICIAL 3218m 15:19.01 61st · 7th on team 109.1 +0.027 ★CR CSR
2025-10-15 Saline High School 3218m 14:39.9 46th · 5th on team 110.5 +0.016 ★PR ★CR ★R SR CSR RSR
2025-10-11 Munson Park 3200m 15:42.2 133rd · 19th on team 105.9 +0.034 ★PR ★CR SR CSR
2025-10-04 Monroe Township Stoneco Park 3218m 16:53.54 75th · 20th on team 97.5 +0.006 ★CR CSR
2025-10-01 Heritage Park (Adrian) OFFICIAL 3218m 15:28.7 64th · 8th on team 110.2 +0.046 PR ★CR R SR CSR RSR
2025-09-27 Lake Erie Metro Park OFFICIAL 3200m 16:57.9 187th · 17th on team 99.6 +0.034 ★CR SR CSR
2025-09-19 Ella Sharp Park OFFICIAL 3218m 16:42.1 148th · 17th on team 102.3 +0.055 ★CR SR CSR RSR
2025-09-17 Ella Sharp Park OFFICIAL 3218m 16:45.2 66th · 6th on team 102.1 +0.055 CR SR CSR RSR

2024 XC 94.1

Temperance Bedford (MI) · Grade 7

Date Meet Event Result Place Rating Difficulty PR/SR Flags
2024-10-23 Milan HS OFFICIAL 3218m 16:06.8 69th · 6th on team 105.5 +0.041 PR ★CR R SR CSR RSR
2024-10-19 Airport HS 3218m 17:17.9 109th · 17th on team 97.3 +0.033 ★CR CSR
2024-10-16 Munson Park 3218m 16:57.2 93rd · 9th on team 98.9 +0.034 ★CR SR CSR
2024-10-12 Munson Park 3200m 16:42.4 122nd · 17th on team 100.0 +0.034 PR CR R SR CSR RSR
2024-10-05 Monroe Township Stoneco Park 3218m 18:49.88 82nd · 18th on team 86.8 +0.006 SR CSR
2024-09-28 Lake Erie Metro Park OFFICIAL 3200m 18:40 189th · 19th on team 89.7 +0.034 PR CR SR CSR RSR
2024-09-19 Manly W. Bennett Park 3218m 21:58.14 109th · 12th on team 80.7 +0.100 ★CR SR CSR RSR

2023 XC 87.7

Temperance Bedford (MI) · Grade 6

Date Meet Event Result Place Rating Difficulty PR/SR Flags
2023-10-25 Milan HS OFFICIAL 3218m 18:11 79th · 6th on team 94.2 +0.041 CR CSR
2023-10-18 Indian Creek OFFICIAL 3218m 17:04.2 81st · 6th on team 98.9 +0.038 ★CR R CSR RSR
2023-10-14 Munson Park 3200m 22:58.2 153rd · 20th on team 73.8 +0.034 PR CR SR CSR
2023-10-07 Monroe Township Stoneco Park 3218m 16:56.9 74th · 14th on team 97.4 +0.006 PR CR R SR CSR RSR
2023-10-04 Ella Sharp Park OFFICIAL 3218m 19:46 92nd · 6th on team 87.6 +0.055 CR CSR
2023-09-30 Lake Erie Metro Park OFFICIAL 3218m 17:59.9 197th · 13th on team 94.0 +0.034 PR ★CR R SR CSR RSR
2023-09-22 Ella Sharp Park OFFICIAL 3218m 21:40.4 283rd · 17th on team 79.9 +0.055 PR CR R SR CSR RSR
2023-09-20 Heritage Park (Adrian) OFFICIAL 3218m 22:17.1 102nd · 11th on team 76.0 +0.046 PR CR R SR CSR RSR

Track & Field

2025 TF 84.8

Temperance Bedford (MI) · Grade 7

Date Meet Event Result Place Rating Difficulty PR/SR Flags
2025-05-13 SEC-MS Championship 1600m 7:31.52 24th · 2nd on team 88.3 -0.026 RSR
2025-05-09 SEC-MS Bedford@Monroe Dual Meet 2025 100m 13.48 5th · 3rd on team -0.032 ★PR SR
2025-05-09 SEC-MS Bedford@Monroe Dual Meet 2025 800m 3:31.98 8th · 5th on team 85.1 -0.032 ★PR SR RSR
2025-05-05 SEC-MS: Lincoln @ Bedford pv NH -0.033
2025-05-05 SEC-MS: Lincoln @ Bedford 400m 1:47.36 33rd · 9th on team -0.033 ★PR SR
2025-05-01 SEC-MS: Bedford @ Saline pv NH -0.038
2025-05-01 SEC-MS: Bedford @ Saline 1600m 6:56.19 11th · 2nd on team -0.038 ★PR SR
2025-04-28 SEC-MS: Bedford at Adrian pv NH -0.024
2025-04-28 SEC-MS: Bedford at Adrian 800m 3:42.61 10th · 5th on team 81.6 -0.024
2025-04-24 SEC-MS Pinckney @ Bedford pv NH -0.033
2025-04-24 SEC-MS Pinckney @ Bedford 800m 3:33.73 13th · 5th on team 84.2 -0.033 PR SR RSR